createdAt,value
2022-11-09T00:00:41.284Z,0.73
2022-11-09T00:03:08.167Z,0.57
2022-11-09T00:05:35.053Z,0.70
2022-11-09T00:08:01.849Z,0.80
2022-11-09T00:10:28.895Z,0.85
2022-11-09T00:12:55.670Z,0.80
2022-11-09T00:15:22.497Z,0.80
2022-11-09T00:17:49.340Z,0.70
2022-11-09T00:20:16.305Z,0.65
2022-11-09T00:22:43.114Z,0.65
2022-11-09T00:25:10.097Z,0.85
2022-11-09T00:27:36.739Z,1.02
2022-11-09T00:30:04.794Z,0.80
2022-11-09T00:32:31.482Z,0.60
2022-11-09T00:34:58.167Z,0.52
2022-11-09T00:37:25.073Z,0.70
2022-11-09T00:39:51.893Z,0.60
2022-11-09T00:42:18.840Z,0.57
2022-11-09T00:44:45.690Z,0.80
2022-11-09T00:47:12.434Z,0.60
2022-11-09T00:49:39.266Z,0.75
2022-11-09T00:52:06.153Z,0.57
2022-11-09T00:54:32.867Z,0.65
2022-11-09T00:57:00.346Z,0.90
2022-11-09T00:59:27.053Z,1.23
2022-11-09T01:01:53.788Z,0.82
2022-11-09T01:04:20.594Z,0.65
2022-11-09T01:06:47.350Z,0.77
2022-11-09T01:09:14.280Z,0.60
2022-11-09T01:11:41.041Z,0.65
2022-11-09T01:14:09.066Z,0.93
2022-11-09T01:16:37.123Z,0.82
2022-11-09T01:19:04.423Z,0.60
2022-11-09T01:21:31.708Z,0.68
2022-11-09T01:23:58.975Z,0.47
2022-11-09T01:26:25.742Z,1.02
2022-11-09T01:28:52.609Z,0.75
2022-11-09T01:31:20.589Z,0.80
2022-11-09T01:33:47.443Z,0.45
2022-11-09T01:36:16.210Z,0.75
2022-11-09T01:38:43.503Z,0.57
2022-11-09T01:41:13.776Z,1.00
2022-11-09T01:43:40.513Z,0.40
2022-11-09T01:46:20.302Z,0.70
2022-11-09T01:48:56.121Z,0.82
2022-11-09T01:51:26.991Z,0.57
2022-11-09T01:53:58.959Z,0.82
2022-11-09T01:56:25.815Z,0.60
2022-11-09T01:59:00.975Z,0.60
2022-11-09T02:01:27.762Z,0.32
2022-11-09T02:04:02.072Z,0.63
2022-11-09T02:06:29.636Z,0.95
2022-11-09T02:08:58.711Z,1.00
2022-11-09T02:11:25.607Z,0.98
2022-11-09T02:13:55.424Z,0.57
2022-11-09T02:16:22.645Z,0.68
2022-11-09T02:18:54.633Z,0.60
2022-11-09T02:21:22.429Z,0.60
2022-11-09T02:23:49.507Z,0.60
2022-11-09T02:26:38.969Z,0.88
2022-11-09T02:29:06.683Z,0.40
2022-11-09T02:31:35.527Z,0.82
2022-11-09T02:34:31.847Z,0.70
2022-11-09T02:36:58.718Z,0.60
2022-11-09T02:39:26.280Z,0.55
2022-11-09T02:42:10.472Z,0.70
2022-11-09T02:44:41.345Z,0.80
2022-11-09T02:47:08.593Z,0.43
2022-11-09T02:49:36.352Z,1.05
2022-11-09T02:52:03.113Z,0.88
2022-11-09T02:54:30.098Z,0.90
2022-11-09T02:56:57.377Z,0.82
2022-11-09T02:59:24.088Z,0.52
2022-11-09T03:01:50.810Z,0.88
2022-11-09T03:04:18.184Z,0.80
2022-11-09T03:06:44.905Z,0.77
2022-11-09T03:09:12.026Z,0.75
2022-11-09T03:11:40.278Z,1.00
2022-11-09T03:14:07.169Z,0.82
2022-11-09T03:16:33.863Z,0.50
2022-11-09T03:19:00.619Z,0.57
2022-11-09T03:21:28.147Z,0.50
2022-11-09T03:23:55.102Z,0.60
2022-11-09T03:26:21.970Z,0.50
2022-11-09T03:28:48.662Z,0.40
2022-11-09T03:31:16.795Z,0.43
2022-11-09T03:33:43.952Z,0.75
2022-11-09T03:36:10.766Z,0.75
2022-11-09T03:38:37.563Z,0.52
2022-11-09T03:41:04.318Z,0.80
2022-11-09T03:43:30.963Z,0.80
2022-11-09T03:45:58.104Z,0.50
2022-11-09T03:48:24.893Z,1.05
2022-11-09T03:50:51.782Z,0.50
2022-11-09T03:53:18.859Z,0.50
2022-11-09T03:55:47.240Z,0.57
2022-11-09T03:58:14.066Z,0.70
2022-11-09T04:00:40.748Z,0.52
2022-11-09T04:03:07.459Z,0.50
2022-11-09T04:05:34.278Z,0.65
2022-11-09T04:08:01.049Z,0.50
2022-11-09T04:10:27.862Z,0.38
2022-11-09T04:12:57.664Z,0.60
2022-11-09T04:15:24.470Z,0.52
2022-11-09T04:17:57.834Z,0.35
2022-11-09T04:22:59.894Z,0.95
2022-11-09T04:25:26.741Z,0.50
2022-11-09T04:27:57.121Z,0.55
2022-11-09T04:30:24.411Z,0.50
2022-11-09T04:32:51.125Z,0.40
2022-11-09T04:35:18.244Z,0.57
2022-11-09T04:37:53.189Z,0.60
2022-11-09T04:40:20.545Z,0.45
2022-11-09T04:42:47.669Z,0.40
2022-11-09T04:45:14.533Z,0.47
2022-11-09T04:47:41.952Z,0.40
2022-11-09T04:50:10.602Z,0.40
2022-11-09T04:52:37.553Z,0.47
2022-11-09T04:55:04.900Z,0.50
2022-11-09T04:57:31.635Z,0.70
2022-11-09T04:59:58.527Z,0.38
2022-11-09T05:02:25.383Z,0.50
2022-11-09T05:04:52.488Z,0.60
2022-11-09T05:07:19.575Z,0.45
2022-11-09T05:09:46.290Z,0.32
2022-11-09T05:12:13.080Z,0.30
2022-11-09T05:14:39.761Z,0.30
2022-11-09T05:17:08.897Z,0.40
2022-11-09T05:19:35.625Z,0.73
2022-11-09T05:22:22.268Z,0.50
2022-11-09T05:24:51.678Z,0.93
2022-11-09T05:27:18.398Z,0.70
2022-11-09T05:29:45.076Z,0.52
2022-11-09T05:32:11.736Z,0.32
2022-11-09T05:34:38.406Z,0.40
2022-11-09T05:37:05.080Z,0.40
2022-11-09T05:39:31.719Z,0.40
2022-11-09T05:41:58.443Z,0.50
2022-11-09T05:44:25.597Z,0.45
2022-11-09T05:46:52.301Z,0.30
2022-11-09T05:49:19.448Z,0.47
2022-11-09T05:51:46.124Z,0.20
2022-11-09T05:54:12.889Z,0.30
2022-11-09T05:56:39.547Z,0.30
2022-11-09T05:59:06.306Z,0.50
2022-11-09T06:01:32.938Z,0.38
2022-11-09T06:03:59.626Z,0.30
2022-11-09T06:06:26.559Z,0.28
2022-11-09T06:08:53.306Z,0.10
2022-11-09T06:11:24.139Z,0.28
2022-11-09T06:13:52.279Z,0.25
2022-11-09T06:16:19.005Z,0.38
2022-11-09T06:18:45.712Z,0.10
2022-11-09T06:21:12.689Z,0.30
2022-11-09T06:23:39.419Z,0.30
2022-11-09T06:26:09.166Z,0.20
2022-11-09T06:28:37.245Z,0.20
2022-11-09T06:31:06.064Z,0.20
2022-11-09T06:33:33.986Z,0.30
2022-11-09T06:36:00.750Z,0.30
2022-11-09T06:38:27.800Z,0.10
2022-11-09T06:40:55.299Z,0.30
2022-11-09T06:43:23.085Z,0.30
2022-11-09T06:45:50.233Z,0.20
2022-11-09T06:48:16.903Z,0.10
2022-11-09T06:50:43.683Z,0.30
2022-11-09T06:53:12.876Z,0.30
2022-11-09T06:55:40.866Z,0.13
2022-11-09T06:58:12.640Z,0.10
2022-11-09T07:00:39.513Z,0.20
2022-11-09T07:03:06.328Z,0.15
2022-11-09T07:05:33.311Z,0.20
2022-11-09T07:07:59.988Z,0.20
2022-11-09T07:10:26.709Z,0.30
2022-11-09T07:12:53.442Z,0.20
2022-11-09T07:15:20.152Z,0.20
2022-11-09T07:17:46.996Z,0.47
2022-11-09T07:20:14.914Z,0.20
2022-11-09T07:22:42.065Z,0.50
2022-11-09T07:25:12.590Z,0.30
2022-11-09T07:27:39.268Z,0.30
2022-11-09T07:30:08.225Z,0.20
2022-11-09T07:33:02.584Z,0.43
2022-11-09T07:35:23.098Z,0.30
2022-11-09T07:37:49.876Z,0.40
2022-11-09T07:40:16.581Z,0.30
2022-11-09T07:42:43.268Z,0.20
2022-11-09T07:45:11.294Z,0.28
2022-11-09T07:47:38.620Z,0.20
2022-11-09T07:50:05.803Z,0.50
2022-11-09T07:52:32.979Z,0.40
2022-11-09T07:54:59.654Z,0.20
2022-11-09T07:57:26.888Z,0.40
2022-11-09T07:59:54.110Z,0.28
2022-11-09T08:02:20.864Z,0.30
2022-11-09T08:04:47.676Z,0.30
2022-11-09T08:07:14.673Z,0.32
2022-11-09T08:09:41.550Z,0.20
2022-11-09T08:12:08.345Z,0.30
2022-11-09T08:14:35.218Z,0.30
2022-11-09T08:17:02.048Z,0.60
2022-11-09T08:19:28.975Z,0.20
2022-11-09T08:21:57.906Z,0.40
2022-11-09T08:24:24.628Z,0.30
2022-11-09T08:26:51.319Z,0.25
2022-11-09T08:29:17.950Z,0.43
2022-11-09T08:31:44.785Z,0.40
2022-11-09T08:34:15.005Z,0.45
2022-11-09T08:36:41.688Z,0.30
2022-11-09T08:39:08.499Z,0.75
2022-11-09T08:41:35.281Z,0.50
2022-11-09T08:44:02.169Z,0.30
2022-11-09T08:46:28.814Z,0.47
2022-11-09T08:48:55.522Z,0.30
2022-11-09T08:51:22.327Z,0.60
2022-11-09T08:53:49.161Z,0.60
2022-11-09T08:56:18.507Z,0.60
2022-11-09T08:58:45.452Z,0.82
2022-11-09T09:01:16.652Z,0.30
2022-11-09T09:03:43.988Z,0.30
2022-11-09T09:06:10.694Z,0.50
2022-11-09T09:08:38.306Z,0.47
2022-11-09T09:11:05.386Z,0.57
2022-11-09T09:13:32.432Z,0.30
2022-11-09T09:15:59.172Z,0.35
2022-11-09T09:18:26.116Z,0.47
2022-11-09T09:20:52.818Z,0.40
2022-11-09T09:23:19.735Z,0.40
2022-11-09T09:25:46.558Z,0.38
2022-11-09T09:28:13.283Z,0.40
2022-11-09T09:30:40.207Z,0.43
2022-11-09T09:33:07.239Z,0.40
2022-11-09T09:35:34.041Z,0.40
2022-11-09T09:38:00.890Z,0.60
2022-11-09T09:40:37.051Z,0.40
2022-11-09T09:43:03.964Z,0.47
2022-11-09T09:45:32.930Z,0.40
2022-11-09T09:48:16.923Z,0.57
2022-11-09T09:50:55.690Z,0.57
2022-11-09T09:53:31.359Z,0.50
2022-11-09T09:56:19.352Z,0.30
2022-11-09T09:58:59.341Z,0.40
2022-11-09T10:01:35.073Z,0.55
2022-11-09T10:04:20.007Z,0.80
2022-11-09T10:06:59.351Z,0.70
2022-11-09T10:09:42.123Z,0.50
2022-11-09T10:12:11.770Z,0.60
2022-11-09T10:15:03.261Z,0.80
2022-11-09T10:18:03.118Z,0.80
2022-11-09T10:20:43.971Z,0.60
2022-11-09T10:23:29.283Z,0.60
2022-11-09T10:26:16.001Z,0.55
2022-11-09T10:29:09.652Z,0.55
2022-11-09T10:31:34.021Z,0.30
2022-11-09T10:34:04.164Z,0.80
2022-11-09T10:36:47.997Z,0.90
2022-11-09T10:39:15.394Z,0.50
2022-11-09T10:41:46.380Z,0.68
2022-11-09T10:44:18.145Z,0.90
2022-11-09T10:47:08.355Z,0.55
2022-11-09T10:49:35.638Z,0.50
2022-11-09T10:52:02.764Z,0.55
2022-11-09T10:54:37.921Z,0.45
2022-11-09T10:57:15.615Z,0.70
2022-11-09T10:59:55.073Z,0.68
2022-11-09T11:02:24.934Z,0.52
2022-11-09T11:05:17.751Z,0.57
2022-11-09T11:07:45.211Z,0.77
2022-11-09T11:10:14.906Z,0.70
2022-11-09T11:12:42.508Z,1.00
2022-11-09T11:15:28.983Z,0.65
2022-11-09T11:18:03.195Z,0.60
2022-11-09T11:20:32.209Z,0.95
2022-11-09T11:23:16.681Z,0.57
2022-11-09T11:25:55.965Z,0.70
2022-11-09T11:28:40.853Z,0.60
2022-11-09T11:31:20.511Z,0.90
2022-11-09T11:33:47.634Z,0.43
2022-11-09T11:36:36.127Z,0.88
2022-11-09T11:39:05.722Z,1.10
2022-11-09T11:41:58.757Z,0.63
2022-11-09T11:44:45.959Z,0.70
2022-11-09T11:47:20.739Z,0.60
2022-11-09T11:49:53.586Z,0.60
2022-11-09T11:52:26.643Z,0.73
2022-11-09T11:55:05.722Z,0.60
2022-11-09T11:57:58.469Z,0.88
2022-11-09T12:00:26.040Z,0.67
2022-11-09T12:02:52.969Z,1.00
2022-11-09T12:05:29.512Z,0.70
2022-11-09T12:08:27.685Z,0.88
2022-11-09T12:11:23.954Z,0.85
2022-11-09T12:14:09.288Z,0.63
2022-11-09T12:16:56.227Z,0.70
2022-11-09T12:19:41.427Z,0.85
2022-11-09T12:22:30.141Z,0.50
2022-11-09T12:25:23.031Z,0.50
2022-11-09T12:28:27.544Z,0.77
2022-11-09T12:31:00.250Z,0.88
2022-11-09T12:33:43.694Z,0.80
2022-11-09T12:36:18.322Z,0.60
2022-11-09T12:39:22.163Z,0.68
2022-11-09T12:44:29.726Z,0.40
2022-11-09T12:47:00.434Z,0.80
2022-11-09T12:49:36.685Z,0.88
2022-11-09T12:52:07.757Z,1.00
2022-11-09T12:54:39.738Z,1.02
2022-11-09T12:57:08.800Z,0.82
2022-11-09T12:59:37.836Z,0.57
2022-11-09T13:02:05.351Z,0.90
2022-11-09T13:04:32.186Z,0.75
2022-11-09T13:07:14.616Z,0.70
2022-11-09T13:09:45.037Z,1.20
2022-11-09T13:12:26.002Z,0.77
2022-11-09T13:14:52.858Z,0.90
2022-11-09T13:17:31.931Z,1.02
2022-11-09T13:19:58.941Z,0.50
2022-11-09T13:22:25.730Z,0.47
2022-11-09T13:24:52.581Z,0.50
2022-11-09T13:27:35.485Z,0.52
2022-11-09T13:30:02.395Z,1.08
2022-11-09T13:32:32.036Z,0.90
2022-11-09T13:34:59.929Z,0.88
2022-11-09T13:37:56.771Z,0.80
2022-11-09T13:40:32.981Z,0.65
2022-11-09T13:43:09.031Z,0.75
2022-11-09T13:46:04.373Z,0.50
2022-11-09T13:48:53.452Z,0.77
2022-11-09T13:51:36.032Z,1.00
2022-11-09T13:54:24.407Z,1.02
2022-11-09T13:56:51.150Z,0.77
2022-11-09T13:59:24.442Z,0.70
2022-11-09T14:02:01.349Z,1.00
2022-11-09T14:04:39.055Z,1.40
2022-11-09T14:07:06.998Z,0.70
2022-11-09T14:10:02.098Z,0.75
2022-11-09T14:12:56.962Z,1.35
2022-11-09T14:15:54.584Z,0.98
2022-11-09T14:18:33.140Z,0.80
2022-11-09T14:21:24.787Z,1.08
2022-11-09T14:23:51.542Z,0.90
2022-11-09T14:26:22.743Z,0.82
2022-11-09T14:28:49.448Z,1.05
2022-11-09T14:31:28.207Z,1.08
2022-11-09T14:34:01.670Z,1.13
2022-11-09T14:36:33.478Z,0.98
2022-11-09T14:39:01.528Z,0.75
2022-11-09T14:41:28.269Z,0.88
2022-11-09T14:43:56.726Z,0.55
2022-11-09T14:46:25.572Z,0.63
2022-11-09T14:48:53.303Z,0.70
2022-11-09T14:51:20.227Z,0.82
2022-11-09T14:53:46.943Z,0.80
2022-11-09T14:56:15.625Z,0.60
2022-11-09T14:58:43.266Z,0.60
2022-11-09T15:01:19.923Z,0.85
2022-11-09T15:04:08.833Z,0.82
2022-11-09T15:06:35.618Z,0.90
2022-11-09T15:09:07.594Z,0.85
2022-11-09T15:11:41.113Z,0.98
2022-11-09T15:14:19.747Z,0.57
2022-11-09T15:16:49.177Z,0.68
2022-11-09T15:19:32.644Z,0.75
2022-11-09T15:21:59.490Z,0.63
2022-11-09T15:24:27.607Z,0.60
2022-11-09T15:26:54.557Z,0.77
2022-11-09T15:29:37.840Z,0.52
2022-11-09T15:34:52.108Z,0.70
2022-11-09T15:37:24.093Z,0.40
2022-11-09T15:39:50.991Z,0.50
2022-11-09T15:42:17.914Z,0.57
2022-11-09T15:44:44.622Z,0.50
2022-11-09T15:47:31.637Z,0.80
2022-11-09T15:50:00.215Z,0.70
2022-11-09T15:52:27.368Z,0.80
2022-11-09T15:54:54.149Z,0.93
2022-11-09T15:57:21.793Z,0.75
2022-11-09T15:59:49.907Z,0.70
2022-11-09T16:02:19.028Z,0.60
2022-11-09T16:04:45.840Z,0.80
2022-11-09T16:07:16.488Z,0.80
2022-11-09T16:09:43.622Z,0.50
2022-11-09T16:12:10.438Z,0.57
2022-11-09T16:14:37.367Z,0.80
2022-11-09T16:17:04.360Z,0.57
2022-11-09T16:19:31.016Z,0.50
2022-11-09T16:21:58.516Z,0.60
2022-11-09T16:24:26.839Z,0.45
2022-11-09T16:26:53.893Z,0.40
2022-11-09T16:29:22.623Z,0.60
2022-11-09T16:31:51.708Z,0.90
2022-11-09T16:34:18.993Z,0.90
2022-11-09T16:36:50.922Z,0.60
2022-11-09T16:39:20.626Z,0.60
2022-11-09T16:41:48.684Z,0.65
2022-11-09T16:44:17.263Z,0.75
2022-11-09T16:46:44.572Z,0.70
2022-11-09T16:49:11.372Z,0.75
2022-11-09T16:51:38.168Z,0.88
2022-11-09T16:54:05.029Z,1.17
2022-11-09T16:56:33.667Z,0.90
2022-11-09T16:59:00.741Z,0.43
2022-11-09T17:01:27.600Z,1.00
2022-11-09T17:03:54.384Z,0.70
2022-11-09T17:06:21.182Z,1.05
2022-11-09T17:08:47.924Z,0.65
2022-11-09T17:11:15.329Z,1.30
2022-11-09T17:13:42.054Z,1.15
2022-11-09T17:16:10.730Z,1.00
2022-11-09T17:18:40.537Z,0.88
2022-11-09T17:21:10.902Z,0.75
2022-11-09T17:23:38.249Z,0.70
2022-11-09T17:26:05.854Z,0.88
2022-11-09T17:28:32.665Z,0.40
2022-11-09T17:30:59.417Z,0.73
2022-11-09T17:33:26.234Z,0.90
2022-11-09T17:36:03.739Z,0.68
2022-11-09T17:38:30.588Z,0.82
2022-11-09T17:41:13.925Z,0.82
2022-11-09T17:43:41.256Z,0.57
2022-11-09T17:46:12.839Z,0.75
2022-11-09T17:48:40.502Z,0.80
2022-11-09T17:51:07.437Z,0.63
2022-11-09T17:53:34.163Z,0.85
2022-11-09T17:56:01.759Z,0.68
2022-11-09T17:58:28.576Z,0.60
2022-11-09T18:00:55.300Z,0.63
2022-11-09T18:03:23.033Z,0.80
2022-11-09T18:05:49.666Z,0.80
2022-11-09T18:08:16.359Z,0.80
2022-11-09T18:10:44.638Z,0.80
2022-11-09T18:13:11.793Z,1.00
2022-11-09T18:15:38.773Z,0.60
2022-11-09T18:18:06.082Z,0.80
2022-11-09T18:20:33.023Z,0.70
2022-11-09T18:22:59.788Z,0.80
2022-11-09T18:25:27.686Z,0.90
2022-11-09T18:27:54.714Z,0.63
2022-11-09T18:30:22.867Z,0.88
2022-11-09T18:32:50.079Z,0.88
2022-11-09T18:35:21.426Z,0.88
2022-11-09T18:37:48.825Z,0.98
2022-11-09T18:40:17.025Z,0.65
2022-11-09T18:42:44.351Z,0.82
2022-11-09T18:45:11.282Z,0.85
2022-11-09T18:47:39.511Z,0.60
2022-11-09T18:50:08.661Z,0.70
2022-11-09T18:52:36.954Z,0.82
2022-11-09T18:55:06.155Z,0.90
2022-11-09T18:57:33.000Z,0.60
2022-11-09T19:00:00.454Z,1.17
2022-11-09T19:02:27.342Z,1.08
2022-11-09T19:04:57.181Z,1.08
2022-11-09T19:07:23.990Z,0.98
2022-11-09T19:09:56.231Z,0.95
2022-11-09T19:12:26.710Z,0.85
2022-11-09T19:14:56.037Z,1.08
2022-11-09T19:17:23.026Z,1.30
2022-11-09T19:19:50.294Z,1.13
2022-11-09T19:22:19.317Z,1.00
2022-11-09T19:24:46.381Z,1.08
2022-11-09T19:27:13.889Z,1.20
2022-11-09T19:29:44.574Z,1.48
2022-11-09T19:32:11.985Z,1.00
2022-11-09T19:34:39.116Z,1.00
2022-11-09T19:37:06.531Z,1.08
2022-11-09T19:39:34.799Z,0.77
2022-11-09T19:42:02.968Z,1.20
2022-11-09T19:44:33.000Z,0.80
2022-11-09T19:47:00.638Z,1.05
2022-11-09T19:49:28.692Z,0.80
2022-11-09T19:51:56.241Z,0.88
2022-11-09T19:54:26.264Z,0.93
2022-11-09T19:56:55.674Z,0.70
2022-11-09T19:59:25.124Z,1.00
2022-11-09T20:01:52.016Z,1.60
2022-11-09T20:04:19.835Z,1.10
2022-11-09T20:06:46.847Z,0.80
2022-11-09T20:09:14.193Z,0.80
2022-11-09T20:12:00.755Z,0.75
2022-11-09T20:14:28.127Z,1.10
2022-11-09T20:17:03.065Z,1.42
2022-11-09T20:19:30.973Z,1.33
2022-11-09T20:21:58.403Z,1.00
2022-11-09T20:24:25.639Z,0.93
2022-11-09T20:26:52.781Z,0.90
2022-11-09T20:29:20.035Z,0.93
2022-11-09T20:31:46.877Z,0.80
2022-11-09T20:34:13.699Z,1.23
2022-11-09T20:36:40.648Z,1.02
2022-11-09T20:39:07.765Z,0.95
2022-11-09T20:41:36.005Z,0.95
2022-11-09T20:44:03.453Z,1.02
2022-11-09T20:46:35.679Z,0.70
2022-11-09T20:49:03.810Z,0.80
2022-11-09T20:51:32.257Z,0.70
2022-11-09T20:54:05.430Z,1.33
2022-11-09T20:56:34.698Z,0.90
2022-11-09T20:59:01.763Z,0.52
2022-11-09T21:01:29.582Z,0.70
2022-11-09T21:03:56.499Z,0.60
2022-11-09T21:06:23.350Z,0.85
2022-11-09T21:08:53.288Z,0.45
2022-11-09T21:11:23.890Z,0.35
2022-11-09T21:13:51.403Z,0.60
2022-11-09T21:16:20.042Z,0.50
2022-11-09T21:18:47.272Z,0.52
2022-11-09T21:21:19.286Z,0.50
2022-11-09T21:24:04.464Z,0.70
2022-11-09T21:26:49.945Z,0.80
2022-11-09T21:29:39.951Z,0.60
2022-11-09T21:32:07.091Z,0.60
2022-11-09T21:34:36.978Z,0.60
2022-11-09T21:37:05.041Z,0.60
2022-11-09T21:39:31.991Z,0.60
2022-11-09T21:41:59.125Z,1.15
2022-11-09T21:44:27.755Z,1.00
2022-11-09T21:46:54.721Z,0.85
2022-11-09T21:49:21.810Z,0.73
2022-11-09T21:51:48.944Z,0.60
2022-11-09T21:54:16.407Z,1.10
2022-11-09T21:56:43.258Z,1.02
2022-11-09T21:59:10.144Z,1.10
2022-11-09T22:01:37.633Z,1.23
2022-11-09T22:04:04.871Z,1.08
2022-11-09T22:06:31.961Z,0.90
2022-11-09T22:08:58.937Z,1.00
2022-11-09T22:11:45.413Z,0.80
2022-11-09T22:14:35.186Z,0.82
2022-11-09T22:17:02.487Z,0.70
2022-11-09T22:19:48.242Z,0.70
2022-11-09T22:22:15.305Z,0.80
2022-11-09T22:24:42.123Z,0.68
2022-11-09T22:27:09.109Z,0.60
2022-11-09T22:29:35.868Z,0.68
2022-11-09T22:32:02.998Z,0.70
2022-11-09T22:34:30.326Z,0.65
2022-11-09T22:36:57.175Z,0.77
2022-11-09T22:39:24.094Z,0.70
2022-11-09T22:41:50.999Z,0.93
2022-11-09T22:44:18.165Z,1.02
2022-11-09T22:46:45.129Z,0.88
2022-11-09T22:49:12.084Z,1.10
2022-11-09T22:51:38.979Z,1.02
2022-11-09T22:54:05.844Z,1.30
2022-11-09T22:56:33.157Z,1.13
2022-11-09T22:59:01.189Z,1.15
2022-11-09T23:01:28.613Z,1.38
2022-11-09T23:03:56.194Z,1.35
2022-11-09T23:06:24.158Z,1.17
2022-11-09T23:08:50.967Z,1.15
2022-11-09T23:11:22.327Z,1.13
2022-11-09T23:13:50.383Z,0.98
2022-11-09T23:16:17.842Z,0.80
2022-11-09T23:18:53.919Z,0.77
2022-11-09T23:21:22.901Z,1.00
2022-11-09T23:23:49.967Z,1.20
2022-11-09T23:26:16.947Z,0.80
2022-11-09T23:28:44.384Z,1.05
2022-11-09T23:31:13.055Z,1.23
2022-11-09T23:33:41.242Z,1.10
2022-11-09T23:36:08.496Z,1.02
2022-11-09T23:38:36.873Z,1.60
2022-11-09T23:41:24.738Z,0.88
2022-11-09T23:43:55.093Z,1.00
2022-11-09T23:46:22.010Z,1.65
2022-11-09T23:48:49.947Z,1.20
2022-11-09T23:51:18.559Z,1.00
2022-11-09T23:53:45.355Z,0.80
2022-11-09T23:56:12.541Z,1.05
2022-11-09T23:58:39.371Z,0.90
